sensor_id;sensor_type;location;lat;lon;timestamp;temperature;humidity
60293;DHT22;52402;52.670;6.750;2023-04-25T00:05:10;6.30;99.90
60293;DHT22;52402;52.670;6.750;2023-04-25T00:07:49;6.30;99.90
60293;DHT22;52402;52.670;6.750;2023-04-25T00:10:18;6.30;99.90
60293;DHT22;52402;52.670;6.750;2023-04-25T00:12:51;6.40;99.90
60293;DHT22;52402;52.670;6.750;2023-04-25T00:15:38;6.40;99.90
60293;DHT22;52402;52.670;6.750;2023-04-25T00:18:34;6.40;99.90
60293;DHT22;52402;52.670;6.750;2023-04-25T00:21:07;6.30;99.90
60293;DHT22;52402;52.670;6.750;2023-04-25T00:23:43;6.30;99.90
60293;DHT22;52402;52.670;6.750;2023-04-25T00:26:21;6.20;99.90
60293;DHT22;52402;52.670;6.750;2023-04-25T00:28:49;6.20;99.90
60293;DHT22;52402;52.670;6.750;2023-04-25T00:31:39;6.10;99.90
60293;DHT22;52402;52.670;6.750;2023-04-25T00:34:07;6.10;99.90
60293;DHT22;52402;52.670;6.750;2023-04-25T00:36:54;6.00;99.90
60293;DHT22;52402;52.670;6.750;2023-04-25T00:39:35;6.00;99.90
60293;DHT22;52402;52.670;6.750;2023-04-25T00:42:17;5.90;99.90
60293;DHT22;52402;52.670;6.750;2023-04-25T00:44:53;5.90;99.90
60293;DHT22;52402;52.670;6.750;2023-04-25T00:47:40;5.90;99.90
60293;DHT22;52402;52.670;6.750;2023-04-25T00:50:17;5.80;99.90
60293;DHT22;52402;52.670;6.750;2023-04-25T00:55:45;5.70;99.90
60293;DHT22;52402;52.670;6.750;2023-04-25T00:58:26;5.60;99.90
60293;DHT22;52402;52.670;6.750;2023-04-25T01:00:57;5.60;99.90
60293;DHT22;52402;52.670;6.750;2023-04-25T01:03:35;5.60;99.90
60293;DHT22;52402;52.670;6.750;2023-04-25T01:08:44;5.50;99.90
60293;DHT22;52402;52.670;6.750;2023-04-25T01:11:30;5.50;99.90
60293;DHT22;52402;52.670;6.750;2023-04-25T01:13:58;5.40;99.90
60293;DHT22;52402;52.670;6.750;2023-04-25T01:16:36;5.40;99.90
60293;DHT22;52402;52.670;6.750;2023-04-25T01:21:55;5.40;99.90
60293;DHT22;52402;52.670;6.750;2023-04-25T01:24:32;5.40;99.90
60293;DHT22;52402;52.670;6.750;2023-04-25T01:29:47;5.40;99.90
60293;DHT22;52402;52.670;6.750;2023-04-25T01:32:17;5.40;99.90
60293;DHT22;52402;52.670;6.750;2023-04-25T01:35:05;5.40;99.90
60293;DHT22;52402;52.670;6.750;2023-04-25T01:40:49;5.40;99.90
60293;DHT22;52402;52.670;6.750;2023-04-25T01:43:29;5.30;99.90
60293;DHT22;52402;52.670;6.750;2023-04-25T01:45:56;5.30;99.90
60293;DHT22;52402;52.670;6.750;2023-04-25T01:48:36;5.30;99.90
60293;DHT22;52402;52.670;6.750;2023-04-25T01:51:15;5.20;99.90
60293;DHT22;52402;52.670;6.750;2023-04-25T01:53:49;5.20;99.90
60293;DHT22;52402;52.670;6.750;2023-04-25T01:59:22;5.10;99.90
60293;DHT22;52402;52.670;6.750;2023-04-25T02:01:58;5.10;99.90
60293;DHT22;52402;52.670;6.750;2023-04-25T02:04:52;5.00;99.90
60293;DHT22;52402;52.670;6.750;2023-04-25T02:07:27;5.00;99.90
60293;DHT22;52402;52.670;6.750;2023-04-25T02:13:07;5.10;99.90
60293;DHT22;52402;52.670;6.750;2023-04-25T02:15:38;5.10;99.90
60293;DHT22;52402;52.670;6.750;2023-04-25T02:18:20;5.10;99.90
60293;DHT22;52402;52.670;6.750;2023-04-25T02:20:54;5.20;99.90
60293;DHT22;52402;52.670;6.750;2023-04-25T02:23:33;5.20;99.90
60293;DHT22;52402;52.670;6.750;2023-04-25T02:26:23;5.20;99.90
60293;DHT22;52402;52.670;6.750;2023-04-25T02:31:53;5.20;99.90
60293;DHT22;52402;52.670;6.750;2023-04-25T02:34:27;5.30;99.90
60293;DHT22;52402;52.670;6.750;2023-04-25T02:37:03;5.30;99.90
60293;DHT22;52402;52.670;6.750;2023-04-25T02:39:31;5.30;99.90
60293;DHT22;52402;52.670;6.750;2023-04-25T02:42:02;5.30;99.90
60293;DHT22;52402;52.670;6.750;2023-04-25T02:44:42;5.30;99.90
60293;DHT22;52402;52.670;6.750;2023-04-25T02:47:19;5.30;99.90
60293;DHT22;52402;52.670;6.750;2023-04-25T02:50:15;5.30;99.90
60293;DHT22;52402;52.670;6.750;2023-04-25T02:52:50;5.30;99.90
60293;DHT22;52402;52.670;6.750;2023-04-25T02:55:20;5.30;99.90
60293;DHT22;52402;52.670;6.750;2023-04-25T02:58:01;5.30;99.90
60293;DHT22;52402;52.670;6.750;2023-04-25T03:03:27;5.40;99.90
60293;DHT22;52402;52.670;6.750;2023-04-25T03:06:00;5.40;99.90
60293;DHT22;52402;52.670;6.750;2023-04-25T03:08:28;5.30;99.90
60293;DHT22;52402;52.670;6.750;2023-04-25T03:11:06;5.30;99.90
60293;DHT22;52402;52.670;6.750;2023-04-25T03:13:36;5.40;99.90
60293;DHT22;52402;52.670;6.750;2023-04-25T03:16:11;5.30;99.90
60293;DHT22;52402;52.670;6.750;2023-04-25T03:21:40;5.30;99.90
60293;DHT22;52402;52.670;6.750;2023-04-25T03:24:18;5.30;99.90
60293;DHT22;52402;52.670;6.750;2023-04-25T03:29:35;5.30;99.90
60293;DHT22;52402;52.670;6.750;2023-04-25T03:32:05;5.30;99.90
60293;DHT22;52402;52.670;6.750;2023-04-25T03:34:38;5.30;99.90
60293;DHT22;52402;52.670;6.750;2023-04-25T03:40:18;5.30;99.90
60293;DHT22;52402;52.670;6.750;2023-04-25T03:42:46;5.30;99.90
60293;DHT22;52402;52.670;6.750;2023-04-25T03:45:32;5.30;99.90
60293;DHT22;52402;52.670;6.750;2023-04-25T03:48:20;5.20;99.90
60293;DHT22;52402;52.670;6.750;2023-04-25T03:56:21;5.20;99.90
60293;DHT22;52402;52.670;6.750;2023-04-25T03:59:00;5.20;99.90
60293;DHT22;52402;52.670;6.750;2023-04-25T04:01:34;5.20;99.90
60293;DHT22;52402;52.670;6.750;2023-04-25T04:04:10;5.20;99.90
60293;DHT22;52402;52.670;6.750;2023-04-25T04:06:46;5.20;99.90
60293;DHT22;52402;52.670;6.750;2023-04-25T04:14:54;5.20;99.90
60293;DHT22;52402;52.670;6.750;2023-04-25T04:17:26;5.20;99.90
60293;DHT22;52402;52.670;6.750;2023-04-25T04:19:54;5.10;99.90
60293;DHT22;52402;52.670;6.750;2023-04-25T04:22:34;5.10;99.90
60293;DHT22;52402;52.670;6.750;2023-04-25T04:25:10;5.10;99.90
60293;DHT22;52402;52.670;6.750;2023-04-25T04:27:42;5.10;99.90
60293;DHT22;52402;52.670;6.750;2023-04-25T04:30:26;5.10;99.90
60293;DHT22;52402;52.670;6.750;2023-04-25T04:33:30;5.00;99.90
60293;DHT22;52402;52.670;6.750;2023-04-25T04:36:08;5.00;99.90
60293;DHT22;52402;52.670;6.750;2023-04-25T04:41:50;5.00;99.90
60293;DHT22;52402;52.670;6.750;2023-04-25T04:47:23;5.00;99.90
60293;DHT22;52402;52.670;6.750;2023-04-25T04:52:53;5.00;99.90
60293;DHT22;52402;52.670;6.750;2023-04-25T04:55:27;5.00;99.90
60293;DHT22;52402;52.670;6.750;2023-04-25T05:03:30;5.10;99.90
60293;DHT22;52402;52.670;6.750;2023-04-25T05:06:10;5.10;99.90
60293;DHT22;52402;52.670;6.750;2023-04-25T05:08:44;5.20;99.90
60293;DHT22;52402;52.670;6.750;2023-04-25T05:11:28;5.20;99.90
60293;DHT22;52402;52.670;6.750;2023-04-25T05:14:21;5.20;99.90
60293;DHT22;52402;52.670;6.750;2023-04-25T05:16:49;5.30;99.90
60293;DHT22;52402;52.670;6.750;2023-04-25T05:19:33;5.30;99.90
60293;DHT22;52402;52.670;6.750;2023-04-25T05:22:01;5.30;99.90
60293;DHT22;52402;52.670;6.750;2023-04-25T05:24:39;5.30;99.90
60293;DHT22;52402;52.670;6.750;2023-04-25T05:27:12;5.40;99.90
60293;DHT22;52402;52.670;6.750;2023-04-25T05:29:54;5.40;99.90
60293;DHT22;52402;52.670;6.750;2023-04-25T05:32:20;5.40;99.90
60293;DHT22;52402;52.670;6.750;2023-04-25T05:35:04;5.40;99.90
60293;DHT22;52402;52.670;6.750;2023-04-25T05:37:56;5.50;99.90
60293;DHT22;52402;52.670;6.750;2023-04-25T05:40:36;5.50;99.90
60293;DHT22;52402;52.670;6.750;2023-04-25T05:49:21;5.60;99.90
60293;DHT22;52402;52.670;6.750;2023-04-25T05:52:00;5.60;99.90
60293;DHT22;52402;52.670;6.750;2023-04-25T05:54:47;5.60;99.90
60293;DHT22;52402;52.670;6.750;2023-04-25T05:57:26;5.70;99.90
60293;DHT22;52402;52.670;6.750;2023-04-25T06:00:08;5.60;99.90
60293;DHT22;52402;52.670;6.750;2023-04-25T06:02:58;5.60;99.90
60293;DHT22;52402;52.670;6.750;2023-04-25T06:05:23;5.70;99.90
60293;DHT22;52402;52.670;6.750;2023-04-25T06:07:56;5.70;99.90
60293;DHT22;52402;52.670;6.750;2023-04-25T06:10:26;5.80;99.90
60293;DHT22;52402;52.670;6.750;2023-04-25T06:12:57;5.90;99.90
60293;DHT22;52402;52.670;6.750;2023-04-25T06:15:28;6.10;99.90
60293;DHT22;52402;52.670;6.750;2023-04-25T06:17:58;6.20;99.90
60293;DHT22;52402;52.670;6.750;2023-04-25T06:20:29;6.40;99.90
60293;DHT22;52402;52.670;6.750;2023-04-25T06:22:59;6.50;99.90
60293;DHT22;52402;52.670;6.750;2023-04-25T06:25:38;6.50;99.90
60293;DHT22;52402;52.670;6.750;2023-04-25T06:28:22;6.60;99.90
60293;DHT22;52402;52.670;6.750;2023-04-25T06:31:08;6.60;99.90
60293;DHT22;52402;52.670;6.750;2023-04-25T06:33:39;6.60;99.90
60293;DHT22;52402;52.670;6.750;2023-04-25T06:36:12;6.60;99.90
60293;DHT22;52402;52.670;6.750;2023-04-25T06:38:50;6.60;99.90
60293;DHT22;52402;52.670;6.750;2023-04-25T06:41:45;6.60;99.90
60293;DHT22;52402;52.670;6.750;2023-04-25T06:44:16;6.60;99.90
60293;DHT22;52402;52.670;6.750;2023-04-25T06:49:32;6.70;99.90
60293;DHT22;52402;52.670;6.750;2023-04-25T06:59:27;6.80;99.90
60293;DHT22;52402;52.670;6.750;2023-04-25T07:02:03;6.70;99.90
60293;DHT22;52402;52.670;6.750;2023-04-25T07:04:36;6.70;99.90
60293;DHT22;52402;52.670;6.750;2023-04-25T07:07:05;6.80;99.90
60293;DHT22;52402;52.670;6.750;2023-04-25T07:09:38;6.80;99.90
60293;DHT22;52402;52.670;6.750;2023-04-25T07:12:09;6.90;99.90
60293;DHT22;52402;52.670;6.750;2023-04-25T07:14:40;7.00;99.90
60293;DHT22;52402;52.670;6.750;2023-04-25T07:17:13;7.10;99.90
60293;DHT22;52402;52.670;6.750;2023-04-25T07:19:41;7.20;99.90
60293;DHT22;52402;52.670;6.750;2023-04-25T07:22:08;7.40;99.90
60293;DHT22;52402;52.670;6.750;2023-04-25T07:24:36;7.60;99.90
60293;DHT22;52402;52.670;6.750;2023-04-25T07:27:04;7.70;99.90
60293;DHT22;52402;52.670;6.750;2023-04-25T07:29:32;7.90;99.90
60293;DHT22;52402;52.670;6.750;2023-04-25T07:32:05;7.90;99.90
60293;DHT22;52402;52.670;6.750;2023-04-25T07:34:33;8.00;99.90
60293;DHT22;52402;52.670;6.750;2023-04-25T07:37:05;8.00;99.90
60293;DHT22;52402;52.670;6.750;2023-04-25T07:39:37;7.90;99.90
60293;DHT22;52402;52.670;6.750;2023-04-25T07:42:05;7.90;99.90
60293;DHT22;52402;52.670;6.750;2023-04-25T07:44:41;8.00;99.90
60293;DHT22;52402;52.670;6.750;2023-04-25T07:47:10;8.10;99.90
60293;DHT22;52402;52.670;6.750;2023-04-25T07:49:41;8.00;99.90
60293;DHT22;52402;52.670;6.750;2023-04-25T07:52:12;8.10;99.90
60293;DHT22;52402;52.670;6.750;2023-04-25T07:54:37;7.90;99.90
60293;DHT22;52402;52.670;6.750;2023-04-25T07:57:03;7.90;99.90
60293;DHT22;52402;52.670;6.750;2023-04-25T07:59:33;7.80;99.90
60293;DHT22;52402;52.670;6.750;2023-04-25T08:02:01;7.80;99.90
60293;DHT22;52402;52.670;6.750;2023-04-25T08:04:30;7.70;99.90
60293;DHT22;52402;52.670;6.750;2023-04-25T08:06:58;7.90;99.90
60293;DHT22;52402;52.670;6.750;2023-04-25T08:09:34;8.10;99.90
60293;DHT22;52402;52.670;6.750;2023-04-25T08:12:09;8.20;99.90
60293;DHT22;52402;52.670;6.750;2023-04-25T08:14:52;8.30;99.90
60293;DHT22;52402;52.670;6.750;2023-04-25T08:20:54;8.40;99.90
60293;DHT22;52402;52.670;6.750;2023-04-25T08:23:43;8.40;99.90
60293;DHT22;52402;52.670;6.750;2023-04-25T08:26:09;8.60;99.90
60293;DHT22;52402;52.670;6.750;2023-04-25T08:28:45;8.70;99.90
60293;DHT22;52402;52.670;6.750;2023-04-25T08:31:23;8.70;99.90
60293;DHT22;52402;52.670;6.750;2023-04-25T08:33:57;9.00;99.90
60293;DHT22;52402;52.670;6.750;2023-04-25T08:36:41;9.20;99.90
60293;DHT22;52402;52.670;6.750;2023-04-25T08:39:19;9.40;99.90
60293;DHT22;52402;52.670;6.750;2023-04-25T08:42:04;9.40;99.90
60293;DHT22;52402;52.670;6.750;2023-04-25T08:47:35;9.10;99.90
60293;DHT22;52402;52.670;6.750;2023-04-25T08:50:16;8.90;99.90
60293;DHT22;52402;52.670;6.750;2023-04-25T08:52:55;9.10;99.90
60293;DHT22;52402;52.670;6.750;2023-04-25T08:55:43;9.10;99.90
60293;DHT22;52402;52.670;6.750;2023-04-25T09:01:07;9.30;99.90
60293;DHT22;52402;52.670;6.750;2023-04-25T09:04:05;9.40;99.90
60293;DHT22;52402;52.670;6.750;2023-04-25T09:09:58;9.20;99.90
60293;DHT22;52402;52.670;6.750;2023-04-25T09:13:08;9.10;99.90
60293;DHT22;52402;52.670;6.750;2023-04-25T09:15:57;8.70;99.90
60293;DHT22;52402;52.670;6.750;2023-04-25T09:18:37;8.70;99.90
60293;DHT22;52402;52.670;6.750;2023-04-25T09:21:22;8.60;99.90
60293;DHT22;52402;52.670;6.750;2023-04-25T09:24:02;8.60;99.90
60293;DHT22;52402;52.670;6.750;2023-04-25T09:29:59;8.70;99.90
60293;DHT22;52402;52.670;6.750;2023-04-25T09:32:35;8.60;99.90
60293;DHT22;52402;52.670;6.750;2023-04-25T09:35:03;8.90;99.90
60293;DHT22;52402;52.670;6.750;2023-04-25T09:37:44;8.90;99.90
60293;DHT22;52402;52.670;6.750;2023-04-25T09:40:14;9.10;99.90
60293;DHT22;52402;52.670;6.750;2023-04-25T09:42:51;9.30;99.90
60293;DHT22;52402;52.670;6.750;2023-04-25T09:45:19;9.50;99.90
60293;DHT22;52402;52.670;6.750;2023-04-25T09:47:59;9.60;99.90
60293;DHT22;52402;52.670;6.750;2023-04-25T09:50:43;9.80;99.90
60293;DHT22;52402;52.670;6.750;2023-04-25T09:53:24;10.20;99.90
60293;DHT22;52402;52.670;6.750;2023-04-25T09:56:10;10.00;99.90
60293;DHT22;52402;52.670;6.750;2023-04-25T09:58:44;9.40;99.90
60293;DHT22;52402;52.670;6.750;2023-04-25T10:01:42;8.30;99.90
60293;DHT22;52402;52.670;6.750;2023-04-25T10:04:25;7.30;99.90
60293;DHT22;52402;52.670;6.750;2023-04-25T10:07:07;7.00;99.90
60293;DHT22;52402;52.670;6.750;2023-04-25T10:09:45;6.60;99.90
60293;DHT22;52402;52.670;6.750;2023-04-25T10:12:15;6.40;99.90
60293;DHT22;52402;52.670;6.750;2023-04-25T10:14:49;6.30;99.90
60293;DHT22;52402;52.670;6.750;2023-04-25T10:24:43;6.50;99.90
60293;DHT22;52402;52.670;6.750;2023-04-25T10:27:16;6.90;99.90
60293;DHT22;52402;52.670;6.750;2023-04-25T10:29:44;7.40;99.90
60293;DHT22;52402;52.670;6.750;2023-04-25T10:32:14;7.90;99.90
60293;DHT22;52402;52.670;6.750;2023-04-25T10:34:47;8.30;99.90
60293;DHT22;52402;52.670;6.750;2023-04-25T10:37:16;8.80;99.90
60293;DHT22;52402;52.670;6.750;2023-04-25T10:39:46;8.90;99.90
60293;DHT22;52402;52.670;6.750;2023-04-25T10:42:14;8.80;99.90
60293;DHT22;52402;52.670;6.750;2023-04-25T10:45:03;8.60;99.90
60293;DHT22;52402;52.670;6.750;2023-04-25T10:47:45;8.10;99.90
60293;DHT22;52402;52.670;6.750;2023-04-25T10:50:20;7.50;99.90
60293;DHT22;52402;52.670;6.750;2023-04-25T10:52:48;7.00;99.90
60293;DHT22;52402;52.670;6.750;2023-04-25T10:55:18;6.80;99.90
60293;DHT22;52402;52.670;6.750;2023-04-25T10:57:47;6.70;99.90
60293;DHT22;52402;52.670;6.750;2023-04-25T11:00:25;6.70;99.90
60293;DHT22;52402;52.670;6.750;2023-04-25T11:12:16;7.60;99.90
60293;DHT22;52402;52.670;6.750;2023-04-25T11:15:12;7.80;99.90
60293;DHT22;52402;52.670;6.750;2023-04-25T11:18:06;8.10;99.90
60293;DHT22;52402;52.670;6.750;2023-04-25T11:20:36;8.30;99.90
60293;DHT22;52402;52.670;6.750;2023-04-25T11:23:24;8.60;99.90
60293;DHT22;52402;52.670;6.750;2023-04-25T11:26:11;8.50;99.90
60293;DHT22;52402;52.670;6.750;2023-04-25T11:31:47;8.50;99.90
60293;DHT22;52402;52.670;6.750;2023-04-25T11:34:22;8.80;99.90
60293;DHT22;52402;52.670;6.750;2023-04-25T11:36:50;9.20;99.90
60293;DHT22;52402;52.670;6.750;2023-04-25T11:39:39;9.60;99.90
60293;DHT22;52402;52.670;6.750;2023-04-25T11:42:25;9.90;99.90
60293;DHT22;52402;52.670;6.750;2023-04-25T11:44:53;10.30;99.90
60293;DHT22;52402;52.670;6.750;2023-04-25T11:47:33;10.30;99.90
60293;DHT22;52402;52.670;6.750;2023-04-25T11:50:05;10.60;99.90
60293;DHT22;52402;52.670;6.750;2023-04-25T11:55:48;10.90;99.90
60293;DHT22;52402;52.670;6.750;2023-04-25T11:58:27;10.80;99.90
60293;DHT22;52402;52.670;6.750;2023-04-25T12:04:29;11.20;99.90
60293;DHT22;52402;52.670;6.750;2023-04-25T12:07:09;11.60;99.90
60293;DHT22;52402;52.670;6.750;2023-04-25T12:12:35;12.10;99.90
60293;DHT22;52402;52.670;6.750;2023-04-25T12:15:31;12.20;99.90
60293;DHT22;52402;52.670;6.750;2023-04-25T12:18:27;12.40;99.90
60293;DHT22;52402;52.670;6.750;2023-04-25T12:21:08;12.60;99.90
60293;DHT22;52402;52.670;6.750;2023-04-25T12:23:53;12.00;99.90
60293;DHT22;52402;52.670;6.750;2023-04-25T12:30:06;10.50;99.90
60293;DHT22;52402;52.670;6.750;2023-04-25T12:32:57;10.20;99.90
60293;DHT22;52402;52.670;6.750;2023-04-25T12:35:32;10.10;99.90
60293;DHT22;52402;52.670;6.750;2023-04-25T12:38:31;10.40;99.90
60293;DHT22;52402;52.670;6.750;2023-04-25T12:44:02;10.90;99.90
60293;DHT22;52402;52.670;6.750;2023-04-25T12:46:38;10.90;99.90
60293;DHT22;52402;52.670;6.750;2023-04-25T12:49:10;10.60;99.90
60293;DHT22;52402;52.670;6.750;2023-04-25T12:51:42;10.40;99.90
60293;DHT22;52402;52.670;6.750;2023-04-25T12:54:17;10.50;99.90
60293;DHT22;52402;52.670;6.750;2023-04-25T12:59:54;11.30;99.90
60293;DHT22;52402;52.670;6.750;2023-04-25T13:02:37;11.40;99.90
60293;DHT22;52402;52.670;6.750;2023-04-25T13:05:20;11.30;99.90
60293;DHT22;52402;52.670;6.750;2023-04-25T13:10:57;11.60;99.90
60293;DHT22;52402;52.670;6.750;2023-04-25T13:19:25;11.50;99.90
60293;DHT22;52402;52.670;6.750;2023-04-25T13:21:55;11.40;99.90
60293;DHT22;52402;52.670;6.750;2023-04-25T13:24:39;10.60;99.90
60293;DHT22;52402;52.670;6.750;2023-04-25T13:30:28;9.90;99.90
60293;DHT22;52402;52.670;6.750;2023-04-25T13:33:10;10.10;99.90
60293;DHT22;52402;52.670;6.750;2023-04-25T13:36:26;10.60;99.90
60293;DHT22;52402;52.670;6.750;2023-04-25T13:39:15;10.70;99.90
60293;DHT22;52402;52.670;6.750;2023-04-25T13:44:43;10.20;99.90
60293;DHT22;52402;52.670;6.750;2023-04-25T13:47:15;10.00;99.90
60293;DHT22;52402;52.670;6.750;2023-04-25T13:49:43;9.70;99.90
60293;DHT22;52402;52.670;6.750;2023-04-25T13:52:25;9.40;99.90
60293;DHT22;52402;52.670;6.750;2023-04-25T13:54:55;9.30;99.90
60293;DHT22;52402;52.670;6.750;2023-04-25T13:57:26;9.40;99.90
60293;DHT22;52402;52.670;6.750;2023-04-25T14:00:16;9.40;99.90
60293;DHT22;52402;52.670;6.750;2023-04-25T14:02:47;9.50;99.90
60293;DHT22;52402;52.670;6.750;2023-04-25T14:08:10;10.00;99.90
60293;DHT22;52402;52.670;6.750;2023-04-25T14:10:43;10.40;99.90
60293;DHT22;52402;52.670;6.750;2023-04-25T14:13:24;10.70;99.90
60293;DHT22;52402;52.670;6.750;2023-04-25T14:15:55;11.20;99.90
60293;DHT22;52402;52.670;6.750;2023-04-25T14:18:24;11.60;99.90
60293;DHT22;52402;52.670;6.750;2023-04-25T14:21:05;11.70;99.90
60293;DHT22;52402;52.670;6.750;2023-04-25T14:24:00;11.40;99.90
60293;DHT22;52402;52.670;6.750;2023-04-25T14:26:45;11.60;99.90
60293;DHT22;52402;52.670;6.750;2023-04-25T14:29:31;11.70;99.90
60293;DHT22;52402;52.670;6.750;2023-04-25T14:31:56;11.90;99.90
60293;DHT22;52402;52.670;6.750;2023-04-25T14:34:26;12.00;99.90
60293;DHT22;52402;52.670;6.750;2023-04-25T14:37:05;11.90;99.90
60293;DHT22;52402;52.670;6.750;2023-04-25T14:39:36;12.00;99.90
60293;DHT22;52402;52.670;6.750;2023-04-25T14:42:09;12.30;99.90
60293;DHT22;52402;52.670;6.750;2023-04-25T14:44:49;11.90;99.90
60293;DHT22;52402;52.670;6.750;2023-04-25T14:47:31;11.70;99.90
60293;DHT22;52402;52.670;6.750;2023-04-25T14:52:53;10.70;99.90
60293;DHT22;52402;52.670;6.750;2023-04-25T14:55:39;9.90;99.90
60293;DHT22;52402;52.670;6.750;2023-04-25T14:58:12;9.40;99.90
60293;DHT22;52402;52.670;6.750;2023-04-25T15:00:52;8.90;99.90
60293;DHT22;52402;52.670;6.750;2023-04-25T15:03:20;8.60;99.90
60293;DHT22;52402;52.670;6.750;2023-04-25T15:05:51;8.60;99.90
60293;DHT22;52402;52.670;6.750;2023-04-25T15:08:37;8.50;99.90
60293;DHT22;52402;52.670;6.750;2023-04-25T15:11:10;8.40;99.90
60293;DHT22;52402;52.670;6.750;2023-04-25T15:13:38;8.30;99.90
60293;DHT22;52402;52.670;6.750;2023-04-25T15:16:08;8.20;99.90
60293;DHT22;52402;52.670;6.750;2023-04-25T15:18:39;8.20;99.90
60293;DHT22;52402;52.670;6.750;2023-04-25T15:21:12;8.20;99.90
60293;DHT22;52402;52.670;6.750;2023-04-25T15:23:42;8.30;99.90
60293;DHT22;52402;52.670;6.750;2023-04-25T15:26:13;8.40;99.90
60293;DHT22;52402;52.670;6.750;2023-04-25T15:28:41;8.40;99.90
60293;DHT22;52402;52.670;6.750;2023-04-25T15:31:09;8.50;99.90
60293;DHT22;52402;52.670;6.750;2023-04-25T15:33:39;8.80;99.90
60293;DHT22;52402;52.670;6.750;2023-04-25T15:36:14;8.80;99.90
60293;DHT22;52402;52.670;6.750;2023-04-25T15:38:48;9.30;99.90
60293;DHT22;52402;52.670;6.750;2023-04-25T15:41:19;9.50;99.90
60293;DHT22;52402;52.670;6.750;2023-04-25T15:43:56;9.80;99.90
60293;DHT22;52402;52.670;6.750;2023-04-25T15:46:32;9.90;99.90
60293;DHT22;52402;52.670;6.750;2023-04-25T15:49:02;9.70;99.90
60293;DHT22;52402;52.670;6.750;2023-04-25T15:51:33;9.80;99.90
60293;DHT22;52402;52.670;6.750;2023-04-25T15:54:06;9.50;99.90
60293;DHT22;52402;52.670;6.750;2023-04-25T15:56:39;9.30;99.90
60293;DHT22;52402;52.670;6.750;2023-04-25T15:59:05;9.20;99.90
60293;DHT22;52402;52.670;6.750;2023-04-25T16:01:33;9.10;99.90
60293;DHT22;52402;52.670;6.750;2023-04-25T16:04:06;9.00;99.90
60293;DHT22;52402;52.670;6.750;2023-04-25T16:06:43;8.70;99.90
60293;DHT22;52402;52.670;6.750;2023-04-25T16:09:14;8.50;99.90
60293;DHT22;52402;52.670;6.750;2023-04-25T16:11:42;8.40;99.90
60293;DHT22;52402;52.670;6.750;2023-04-25T16:14:11;8.40;99.90
60293;DHT22;52402;52.670;6.750;2023-04-25T16:16:41;8.40;99.90
60293;DHT22;52402;52.670;6.750;2023-04-25T16:19:11;8.40;99.90
60293;DHT22;52402;52.670;6.750;2023-04-25T16:21:39;8.40;99.90
60293;DHT22;52402;52.670;6.750;2023-04-25T16:24:11;8.50;99.90
60293;DHT22;52402;52.670;6.750;2023-04-25T16:26:42;8.50;99.90
60293;DHT22;52402;52.670;6.750;2023-04-25T16:29:11;8.70;99.90
60293;DHT22;52402;52.670;6.750;2023-04-25T16:31:42;8.90;99.90
60293;DHT22;52402;52.670;6.750;2023-04-25T16:34:14;9.10;99.90
60293;DHT22;52402;52.670;6.750;2023-04-25T16:36:44;9.20;99.90
60293;DHT22;52402;52.670;6.750;2023-04-25T16:39:12;9.00;99.90
60293;DHT22;52402;52.670;6.750;2023-04-25T16:41:43;9.10;99.90
60293;DHT22;52402;52.670;6.750;2023-04-25T16:44:09;9.00;99.90
60293;DHT22;52402;52.670;6.750;2023-04-25T16:46:40;8.80;99.90
60293;DHT22;52402;52.670;6.750;2023-04-25T16:49:08;8.80;99.90
60293;DHT22;52402;52.670;6.750;2023-04-25T16:51:40;8.50;99.90
60293;DHT22;52402;52.670;6.750;2023-04-25T16:54:21;8.40;99.90
60293;DHT22;52402;52.670;6.750;2023-04-25T16:56:54;8.40;99.90
60293;DHT22;52402;52.670;6.750;2023-04-25T16:59:24;8.30;99.90
60293;DHT22;52402;52.670;6.750;2023-04-25T17:01:54;8.30;99.90
60293;DHT22;52402;52.670;6.750;2023-04-25T17:04:25;8.40;99.90
60293;DHT22;52402;52.670;6.750;2023-04-25T17:06:52;8.50;99.90
60293;DHT22;52402;52.670;6.750;2023-04-25T17:09:22;8.40;99.90
60293;DHT22;52402;52.670;6.750;2023-04-25T17:11:52;8.20;99.90
60293;DHT22;52402;52.670;6.750;2023-04-25T17:14:25;8.00;99.90
60293;DHT22;52402;52.670;6.750;2023-04-25T17:17:00;8.00;99.90
60293;DHT22;52402;52.670;6.750;2023-04-25T17:19:30;8.40;99.90
60293;DHT22;52402;52.670;6.750;2023-04-25T17:22:06;8.20;99.90
60293;DHT22;52402;52.670;6.750;2023-04-25T17:24:36;8.30;99.90
60293;DHT22;52402;52.670;6.750;2023-04-25T17:27:06;8.30;99.90
60293;DHT22;52402;52.670;6.750;2023-04-25T17:29:39;8.20;99.90
60293;DHT22;52402;52.670;6.750;2023-04-25T17:32:10;8.10;99.90
60293;DHT22;52402;52.670;6.750;2023-04-25T17:34:40;8.00;99.90
60293;DHT22;52402;52.670;6.750;2023-04-25T17:37:14;8.00;99.90
60293;DHT22;52402;52.670;6.750;2023-04-25T17:39:45;8.00;99.90
60293;DHT22;52402;52.670;6.750;2023-04-25T17:42:15;8.00;99.90
60293;DHT22;52402;52.670;6.750;2023-04-25T17:44:48;8.00;99.90
60293;DHT22;52402;52.670;6.750;2023-04-25T17:47:19;7.90;99.90
60293;DHT22;52402;52.670;6.750;2023-04-25T17:49:47;7.90;99.90
60293;DHT22;52402;52.670;6.750;2023-04-25T17:52:15;7.90;99.90
60293;DHT22;52402;52.670;6.750;2023-04-25T17:54:45;7.90;99.90
60293;DHT22;52402;52.670;6.750;2023-04-25T17:57:18;7.80;99.90
60293;DHT22;52402;52.670;6.750;2023-04-25T17:59:48;7.80;99.90
60293;DHT22;52402;52.670;6.750;2023-04-25T18:02:19;7.70;99.90
60293;DHT22;52402;52.670;6.750;2023-04-25T18:04:50;7.60;99.90
60293;DHT22;52402;52.670;6.750;2023-04-25T18:07:20;7.50;99.90
60293;DHT22;52402;52.670;6.750;2023-04-25T18:09:53;7.50;99.90
60293;DHT22;52402;52.670;6.750;2023-04-25T18:12:21;7.40;99.90
60293;DHT22;52402;52.670;6.750;2023-04-25T18:14:49;7.30;99.90
60293;DHT22;52402;52.670;6.750;2023-04-25T18:17:19;7.30;99.90
60293;DHT22;52402;52.670;6.750;2023-04-25T18:19:51;7.20;99.90
60293;DHT22;52402;52.670;6.750;2023-04-25T18:22:22;7.20;99.90
60293;DHT22;52402;52.670;6.750;2023-04-25T18:24:50;7.10;99.90
60293;DHT22;52402;52.670;6.750;2023-04-25T18:27:17;7.00;99.90
60293;DHT22;52402;52.670;6.750;2023-04-25T18:29:50;7.00;99.90
60293;DHT22;52402;52.670;6.750;2023-04-25T18:32:21;7.00;99.90
60293;DHT22;52402;52.670;6.750;2023-04-25T18:34:46;6.90;99.90
60293;DHT22;52402;52.670;6.750;2023-04-25T18:37:19;6.90;99.90
60293;DHT22;52402;52.670;6.750;2023-04-25T18:39:51;6.80;99.90
60293;DHT22;52402;52.670;6.750;2023-04-25T18:42:22;6.80;99.90
60293;DHT22;52402;52.670;6.750;2023-04-25T18:44:57;6.70;99.90
60293;DHT22;52402;52.670;6.750;2023-04-25T18:47:31;6.70;99.90
60293;DHT22;52402;52.670;6.750;2023-04-25T18:50:02;6.60;99.90
60293;DHT22;52402;52.670;6.750;2023-04-25T18:52:30;6.60;99.90
60293;DHT22;52402;52.670;6.750;2023-04-25T18:55:07;6.60;99.90
60293;DHT22;52402;52.670;6.750;2023-04-25T18:57:40;6.60;99.90
60293;DHT22;52402;52.670;6.750;2023-04-25T19:00:13;6.50;99.90
60293;DHT22;52402;52.670;6.750;2023-04-25T19:02:43;6.50;99.90
60293;DHT22;52402;52.670;6.750;2023-04-25T19:05:14;6.40;99.90
60293;DHT22;52402;52.670;6.750;2023-04-25T19:07:42;6.40;99.90
60293;DHT22;52402;52.670;6.750;2023-04-25T19:10:14;6.30;99.90
60293;DHT22;52402;52.670;6.750;2023-04-25T19:12:41;6.20;99.90